Terminal Aerodrome Forecast
Issued by NWS Lake Charles, LA

Home | Current Version | Previous Version | Text Only | Print | Product List | Glossary On
Versions: 1 2 3 4 5 6 7 8 9 10 11 12
179
FTUS44 KLCH 142323
TAFARA
TAF
KARA 142323Z 1500/1524 VRB03KT P6SM BKN200
     FM150600 01007KT P6SM OVC100=

USA.gov is the U.S. government's official web portal to all federal, state and local government web resources and services.